Dream Angel — 3EEV — position and weather

sailwx.info

Track history (hours):
 
Tides and Currents Weather Stations Pressure Air Temp Water Temp Dewpoint Dewpoint Depression Visibility Wind Speed Wind Dir Waves Ship Positions

Dream Angel

Last reported at 2015-Feb-26 01:29 UTC. Time now 2015-Feb-27 00:30 UTC.
Position N 37°01' W 129°41'.

Length 187 m; draft 6.9 m.

Type: Ship. MMSI: 371820000.

Date/timePositionNaut miles runAvg speedWind from/ knotsBaromVisibWave heightAir tempDewpointWater temp
2015-Feb-26 01:29N 37°01' W 129°41'2117.7
2015-Feb-26 00:16N 36°45' W 129°23'3116.6
2015-Feb-25 22:24N 36°24' W 128°55'1416.8
2015-Feb-25 21:33N 36°14' W 128°43'1716.8
2015-Feb-25 20:33N 36°02' W 128°28'1616.2
2015-Feb-25 19:32N 35°50' W 128°13'1616.1
2015-Feb-25 18:33N 35°39' W 127°60'1616.3
2015-Feb-25 17:33N 35°27' W 127°46'1616.1
2015-Feb-25 16:34N 35°16' W 127°32'1616.1
2015-Feb-25 15:33N 35°05' W 127°17'1515.4
2015-Feb-25 14:33N 34°54' W 127°04'1615.6
2015-Feb-25 13:33N 34°43' W 126°50'1616.0
2015-Feb-25 12:34N 34°32' W 126°37'1715.3
2015-Feb-25 11:26N 34°26' W 126°17'1416.0
2015-Feb-25 10:33N 34°24' W 126°00'4414.8
2015-Feb-25 07:34N 34°17' W 125°07'1616.0
2015-Feb-25 06:33N 34°15' W 124°48'1615.9
2015-Feb-25 05:34N 34°13' W 124°29'2015.8
2015-Feb-25 04:16N 34°10' W 124°05'1216.2
2015-Feb-25 03:33N 34°09' W 123°51'1616.4
2015-Feb-25 02:34N 34°07' W 123°31'1616.1
2015-Feb-25 01:34N 34°04' W 123°12'1716.8
2015-Feb-25 00:33N 34°03' W 122°52'1716.5
2015-Feb-24 23:33N 33°60' W 122°32'1716.7
2015-Feb-24 22:34N 33°58' W 122°12'1716.9
2015-Feb-24 21:33N 33°56' W 121°52'1716.6
2015-Feb-24 20:34N 33°53' W 121°32'4116.3
2015-Feb-24 18:04N 33°48' W 120°44'7716.0
2015-Feb-24 13:16N 33°38' W 119°12'48 9.9
2015-Feb-24 08:26N 33°41' W 118°15'4 5.1
2015-Feb-24 07:33N 33°46' W 118°15'0 0.4
2015-Feb-24 06:32N 33°46' W 118°15'0 0.0
2015-Feb-24 05:32N 33°46' W 118°15'0 0.0
2015-Feb-24 04:32N 33°46' W 118°15'0 0.0
2015-Feb-24 03:32N 33°46' W 118°15'0 0.0
2015-Feb-24 02:32N 33°46' W 118°15'0 0.0
2015-Feb-24 01:33N 33°46' W 118°15'0 0.4
2015-Feb-24 00:32N 33°46' W 118°15'0 0.0
2015-Feb-23 23:32N 33°46' W 118°15'0 0.0
2015-Feb-23 22:32N 33°46' W 118°15'0 0.0
2015-Feb-23 21:32N 33°46' W 118°15'0 0.0
2015-Feb-23 20:32N 33°46' W 118°15'0 0.0
2015-Feb-23 19:32N 33°46' W 118°15'0 0.0
2015-Feb-23 18:32N 33°46' W 118°15'0 0.0
2015-Feb-23 17:32N 33°46' W 118°15'0 0.0
2015-Feb-23 16:32N 33°46' W 118°15'0 0.0
2015-Feb-23 15:32N 33°46' W 118°15'0 0.0
2015-Feb-23 14:32N 33°46' W 118°15'0 0.0
2015-Feb-23 13:32N 33°46' W 118°15'0 0.0
2015-Feb-23 12:32N 33°46' W 118°15'2 1.8
2015-Feb-23 11:33N 33°45' W 118°17'31411.6
2015-Feb-22 08:33N 36°49' W 123°28'1514.8
2015-Feb-22 07:32N 37°02' W 123°39'1514.8
2015-Feb-22 06:33N 37°13' W 123°49'1614.9
2015-Feb-22 05:30N 37°26' W 124°00'1414.6
2015-Feb-22 04:33N 37°38' W 124°11'1514.7
2015-Feb-22 03:33N 37°50' W 124°21'2914.6
2015-Feb-22 01:33N 38°18' W 124°31'1515.1
2015-Feb-22 00:32N 38°33' W 124°30'3215.1
2015-Feb-21 22:23N 39°06' W 124°28'55215.9
2015-Feb-20 11:33N 48°17' W 125°16'1515.2
2015-Feb-20 10:33N 48°29' W 125°02'2814.2
2015-Feb-20 08:32N 48°24' W 124°20'1515.1
2015-Feb-20 07:33N 48°18' W 123°59'1716.9
2015-Feb-20 06:33N 48°15' W 123°34'1211.9
2015-Feb-20 05:34N 48°09' W 123°19'1717.1
2015-Feb-20 04:33N 48°12' W 122°54'1817.6
2015-Feb-20 03:34N 47°59' W 122°36'1716.6
2015-Feb-20 02:34N 47°44' W 122°26'1515.3
2015-Feb-20 01:33N 47°29' W 122°24'1110.7
2015-Feb-20 00:33N 47°18' W 122°27'4 3.7
2015-Feb-19 23:31N 47°16' W 122°23'0 0.0
2015-Feb-19 22:31N 47°16' W 122°23'0 0.0
2015-Feb-19 21:31N 47°16' W 122°23'0 0.0
2015-Feb-19 20:31N 47°16' W 122°23'0 0.0
2015-Feb-19 19:31N 47°16' W 122°23'0 0.0
2015-Feb-19 18:31N 47°16' W 122°23'0 0.0
2015-Feb-19 17:22N 47°16' W 122°23'0 0.0
2015-Feb-19 16:31N 47°16' W 122°23'0 0.0
2015-Feb-19 15:31N 47°16' W 122°23'0 0.0
2015-Feb-19 14:31N 47°16' W 122°23'0 0.0
2015-Feb-19 13:31N 47°16' W 122°23'0 0.0
2015-Feb-19 12:31N 47°16' W 122°23'0 0.0
2015-Feb-19 11:31N 47°16' W 122°23'0 0.0
2015-Feb-19 10:31N 47°16' W 122°23'0 0.0
2015-Feb-19 09:31N 47°16' W 122°23'0 0.0
2015-Feb-19 08:28N 47°16' W 122°23'0 0.0
2015-Feb-19 07:31N 47°16' W 122°23'0 0.0
2015-Feb-19 06:31N 47°16' W 122°23'1 1.1
2015-Feb-19 05:33N 47°16' W 122°24'6 5.7
2015-Feb-19 04:33N 47°22' W 122°24'1312.7
2015-Feb-19 03:33N 47°34' W 122°27'4 3.7
2015-Feb-19 02:33N 47°38' W 122°25'0 0.0
2015-Feb-19 01:33N 47°38' W 122°25'0 0.0
2015-Feb-19 00:30N 47°38' W 122°25'0 0.0
2015-Feb-18 23:33N 47°38' W 122°25'0 0.0
2015-Feb-18 22:33N 47°38' W 122°25'0 0.0
2015-Feb-18 21:33N 47°38' W 122°25'0 0.0
2015-Feb-18 20:33N 47°38' W 122°25'0 0.0
2015-Feb-18 19:33N 47°38' W 122°25'0 0.0
2015-Feb-18 18:33N 47°38' W 122°25'0 0.0
2015-Feb-18 17:33N 47°38' W 122°25'0 0.0
2015-Feb-18 16:33N 47°38' W 122°25'0 0.0
2015-Feb-18 15:33N 47°38' W 122°25'0 0.0
2015-Feb-18 14:33N 47°38' W 122°25'0 0.0
2015-Feb-18 13:33N 47°38' W 122°25'0 0.0
2015-Feb-18 12:33N 47°38' W 122°25'0 0.0
2015-Feb-18 11:33N 47°38' W 122°25'0 0.0
2015-Feb-18 10:33N 47°38' W 122°25'0 0.1
2015-Feb-18 09:33N 47°38' W 122°25'0 0.1
2015-Feb-18 08:33N 47°38' W 122°25'0 0.0
2015-Feb-18 07:33N 47°38' W 122°25'0 0.0
2015-Feb-18 06:33N 47°38' W 122°25'0 0.0
2015-Feb-18 05:33N 47°38' W 122°25'0 0.0
2015-Feb-18 04:33N 47°38' W 122°25'0 0.0
2015-Feb-18 03:33N 47°38' W 122°25'0 0.0
2015-Feb-18 02:33N 47°38' W 122°25'0 0.0
2015-Feb-18 01:33N 47°38' W 122°25'0 0.1
2015-Feb-18 00:33N 47°38' W 122°25'0 0.0
2015-Feb-17 23:30N 47°38' W 122°25'0 0.0
2015-Feb-17 22:33N 47°38' W 122°25'0 0.0
2015-Feb-17 21:33N 47°38' W 122°25'0 0.1
2015-Feb-17 20:33N 47°38' W 122°25'0 0.0
2015-Feb-17 19:33N 47°38' W 122°25'0 0.0
2015-Feb-17 17:33N 47°38' W 122°25'0 0.0
2015-Feb-17 16:33N 47°38' W 122°25'0 0.0
2015-Feb-17 15:24N 47°38' W 122°25'0 0.0
2015-Feb-17 14:33N 47°38' W 122°25'0 0.0
2015-Feb-17 13:33N 47°38' W 122°25'0 0.0
2015-Feb-17 12:33N 47°38' W 122°25'0 0.1
2015-Feb-17 11:33N 47°38' W 122°25'7 7.0
2015-Feb-17 10:33N 47°45' W 122°27'1716.6
2015-Feb-17 09:33N 47°60' W 122°37'1716.4
2015-Feb-17 08:33N 48°11' W 122°55'1716.6
2015-Feb-17 07:33N 48°10' W 123°20'9 8.8
2015-Feb-17 06:33N 48°16' W 123°29'1111.0
2015-Feb-17 05:33N 48°23' W 123°17'1514.7
2015-Feb-17 04:34N 48°38' W 123°14'1414.3
2015-Feb-17 03:34N 48°49' W 123°01'1716.9
2015-Feb-17 02:33N 49°01' W 123°19'8 8.2
2015-Feb-17 01:33N 49°07' W 123°09'1010.1
2015-Feb-17 00:33N 49°11' W 122°55'1 0.6
2015-Feb-16 23:31N 49°11' W 122°55'0 0.0
2015-Feb-16 22:31N 49°11' W 122°55'0 0.0
2015-Feb-16 21:31N 49°11' W 122°55'0 0.0
2015-Feb-16 20:28N 49°11' W 122°55'0 0.0
2015-Feb-16 19:31N 49°11' W 122°55'0 0.0
2015-Feb-16 18:31N 49°11' W 122°55'0 0.0
2015-Feb-16 17:28N 49°11' W 122°55'0 0.0
2015-Feb-16 16:28N 49°11' W 122°55'0 0.0
2015-Feb-16 15:28N 49°11' W 122°55'0 0.0
2015-Feb-16 14:25N 49°11' W 122°55'0 0.0
2015-Feb-16 13:31N 49°11' W 122°55'0 0.0
2015-Feb-16 12:31N 49°11' W 122°55'0 0.0
2015-Feb-16 11:31N 49°11' W 122°55'0 0.0
2015-Feb-16 10:31N 49°11' W 122°55'0 0.0
2015-Feb-16 09:31N 49°11' W 122°55'0 0.0
2015-Feb-16 08:31N 49°11' W 122°55'0 0.0
2015-Feb-16 07:31N 49°11' W 122°55'0 0.0
2015-Feb-16 06:33N 49°11' W 122°55'0 0.5
2015-Feb-16 05:32N 49°11' W 122°55'0 0.0
2015-Feb-16 04:32N 49°11' W 122°55'0 0.0
2015-Feb-16 03:32N 49°11' W 122°55'0 0.0
2015-Feb-16 02:32N 49°11' W 122°55'0 0.0
2015-Feb-16 01:32N 49°11' W 122°55'  
Track history (hours):
 
Tides and Currents Weather Stations Pressure Air Temp Water Temp Dewpoint Dewpoint Depression Visibility Wind Speed Wind Dir Waves Ship Positions

Dream Angel

Last reported at 2015-Feb-26 01:29 UTC. Time now 2015-Feb-27 00:30 UTC.
Position N 37°01' W 129°41'.

Length 187 m; draft 6.9 m.

Type: Ship. MMSI: 371820000.

Date/timePositionNaut miles runAvg speedWind from/ knotsBaromVisibWave heightAir tempDewpointWater temp
2015-Feb-26 01:29N 37°01' W 129°41'2117.7
2015-Feb-26 00:16N 36°45' W 129°23'3116.6
2015-Feb-25 22:24N 36°24' W 128°55'1416.8
2015-Feb-25 21:33N 36°14' W 128°43'1716.8
2015-Feb-25 20:33N 36°02' W 128°28'1616.2
2015-Feb-25 19:32N 35°50' W 128°13'1616.1
2015-Feb-25 18:33N 35°39' W 127°60'1616.3
2015-Feb-25 17:33N 35°27' W 127°46'1616.1
2015-Feb-25 16:34N 35°16' W 127°32'1616.1
2015-Feb-25 15:33N 35°05' W 127°17'1515.4
2015-Feb-25 14:33N 34°54' W 127°04'1615.6
2015-Feb-25 13:33N 34°43' W 126°50'1616.0
2015-Feb-25 12:34N 34°32' W 126°37'1715.3
2015-Feb-25 11:26N 34°26' W 126°17'1416.0
2015-Feb-25 10:33N 34°24' W 126°00'4414.8
2015-Feb-25 07:34N 34°17' W 125°07'1616.0
2015-Feb-25 06:33N 34°15' W 124°48'1615.9
2015-Feb-25 05:34N 34°13' W 124°29'2015.8
2015-Feb-25 04:16N 34°10' W 124°05'1216.2
2015-Feb-25 03:33N 34°09' W 123°51'1616.4
2015-Feb-25 02:34N 34°07' W 123°31'1616.1
2015-Feb-25 01:34N 34°04' W 123°12'1716.8
2015-Feb-25 00:33N 34°03' W 122°52'1716.5
2015-Feb-24 23:33N 33°60' W 122°32'1716.7
2015-Feb-24 22:34N 33°58' W 122°12'1716.9
2015-Feb-24 21:33N 33°56' W 121°52'1716.6
2015-Feb-24 20:34N 33°53' W 121°32'4116.3
2015-Feb-24 18:04N 33°48' W 120°44'7716.0
2015-Feb-24 13:16N 33°38' W 119°12'48 9.9
2015-Feb-24 08:26N 33°41' W 118°15'4 5.1
2015-Feb-24 07:33N 33°46' W 118°15'0 0.4
2015-Feb-24 06:32N 33°46' W 118°15'0 0.0
2015-Feb-24 05:32N 33°46' W 118°15'0 0.0
2015-Feb-24 04:32N 33°46' W 118°15'0 0.0
2015-Feb-24 03:32N 33°46' W 118°15'0 0.0
2015-Feb-24 02:32N 33°46' W 118°15'0 0.0
2015-Feb-24 01:33N 33°46' W 118°15'0 0.4
2015-Feb-24 00:32N 33°46' W 118°15'0 0.0
2015-Feb-23 23:32N 33°46' W 118°15'0 0.0
2015-Feb-23 22:32N 33°46' W 118°15'0 0.0
2015-Feb-23 21:32N 33°46' W 118°15'0 0.0
2015-Feb-23 20:32N 33°46' W 118°15'0 0.0
2015-Feb-23 19:32N 33°46' W 118°15'0 0.0
2015-Feb-23 18:32N 33°46' W 118°15'0 0.0
2015-Feb-23 17:32N 33°46' W 118°15'0 0.0
2015-Feb-23 16:32N 33°46' W 118°15'0 0.0
2015-Feb-23 15:32N 33°46' W 118°15'0 0.0
2015-Feb-23 14:32N 33°46' W 118°15'0 0.0
2015-Feb-23 13:32N 33°46' W 118°15'0 0.0
2015-Feb-23 12:32N 33°46' W 118°15'2 1.8
2015-Feb-23 11:33N 33°45' W 118°17'31411.6
2015-Feb-22 08:33N 36°49' W 123°28'1514.8
2015-Feb-22 07:32N 37°02' W 123°39'1514.8
2015-Feb-22 06:33N 37°13' W 123°49'1614.9
2015-Feb-22 05:30N 37°26' W 124°00'1414.6
2015-Feb-22 04:33N 37°38' W 124°11'1514.7
2015-Feb-22 03:33N 37°50' W 124°21'2914.6
2015-Feb-22 01:33N 38°18' W 124°31'1515.1
2015-Feb-22 00:32N 38°33' W 124°30'3215.1
2015-Feb-21 22:23N 39°06' W 124°28'55215.9
2015-Feb-20 11:33N 48°17' W 125°16'1515.2
2015-Feb-20 10:33N 48°29' W 125°02'2814.2
2015-Feb-20 08:32N 48°24' W 124°20'1515.1
2015-Feb-20 07:33N 48°18' W 123°59'1716.9
2015-Feb-20 06:33N 48°15' W 123°34'1211.9
2015-Feb-20 05:34N 48°09' W 123°19'1717.1
2015-Feb-20 04:33N 48°12' W 122°54'1817.6
2015-Feb-20 03:34N 47°59' W 122°36'1716.6
2015-Feb-20 02:34N 47°44' W 122°26'1515.3
2015-Feb-20 01:33N 47°29' W 122°24'1110.7
2015-Feb-20 00:33N 47°18' W 122°27'4 3.7
2015-Feb-19 23:31N 47°16' W 122°23'0 0.0
2015-Feb-19 22:31N 47°16' W 122°23'0 0.0
2015-Feb-19 21:31N 47°16' W 122°23'0 0.0
2015-Feb-19 20:31N 47°16' W 122°23'0 0.0
2015-Feb-19 19:31N 47°16' W 122°23'0 0.0
2015-Feb-19 18:31N 47°16' W 122°23'0 0.0
2015-Feb-19 17:22N 47°16' W 122°23'0 0.0
2015-Feb-19 16:31N 47°16' W 122°23'0 0.0
2015-Feb-19 15:31N 47°16' W 122°23'0 0.0
2015-Feb-19 14:31N 47°16' W 122°23'0 0.0
2015-Feb-19 13:31N 47°16' W 122°23'0 0.0
2015-Feb-19 12:31N 47°16' W 122°23'0 0.0
2015-Feb-19 11:31N 47°16' W 122°23'0 0.0
2015-Feb-19 10:31N 47°16' W 122°23'0 0.0
2015-Feb-19 09:31N 47°16' W 122°23'0 0.0
2015-Feb-19 08:28N 47°16' W 122°23'0 0.0
2015-Feb-19 07:31N 47°16' W 122°23'0 0.0
2015-Feb-19 06:31N 47°16' W 122°23'1 1.1
2015-Feb-19 05:33N 47°16' W 122°24'6 5.7
2015-Feb-19 04:33N 47°22' W 122°24'1312.7
2015-Feb-19 03:33N 47°34' W 122°27'4 3.7
2015-Feb-19 02:33N 47°38' W 122°25'0 0.0
2015-Feb-19 01:33N 47°38' W 122°25'0 0.0
2015-Feb-19 00:30N 47°38' W 122°25'0 0.0
2015-Feb-18 23:33N 47°38' W 122°25'0 0.0
2015-Feb-18 22:33N 47°38' W 122°25'0 0.0
2015-Feb-18 21:33N 47°38' W 122°25'0 0.0
2015-Feb-18 20:33N 47°38' W 122°25'0 0.0
2015-Feb-18 19:33N 47°38' W 122°25'0 0.0
2015-Feb-18 18:33N 47°38' W 122°25'0 0.0
2015-Feb-18 17:33N 47°38' W 122°25'0 0.0
2015-Feb-18 16:33N 47°38' W 122°25'0 0.0
2015-Feb-18 15:33N 47°38' W 122°25'0 0.0
2015-Feb-18 14:33N 47°38' W 122°25'0 0.0
2015-Feb-18 13:33N 47°38' W 122°25'0 0.0
2015-Feb-18 12:33N 47°38' W 122°25'0 0.0
2015-Feb-18 11:33N 47°38' W 122°25'0 0.0
2015-Feb-18 10:33N 47°38' W 122°25'0 0.1
2015-Feb-18 09:33N 47°38' W 122°25'0 0.1
2015-Feb-18 08:33N 47°38' W 122°25'0 0.0
2015-Feb-18 07:33N 47°38' W 122°25'0 0.0
2015-Feb-18 06:33N 47°38' W 122°25'0 0.0
2015-Feb-18 05:33N 47°38' W 122°25'0 0.0
2015-Feb-18 04:33N 47°38' W 122°25'0 0.0
2015-Feb-18 03:33N 47°38' W 122°25'0 0.0
2015-Feb-18 02:33N 47°38' W 122°25'0 0.0
2015-Feb-18 01:33N 47°38' W 122°25'0 0.1
2015-Feb-18 00:33N 47°38' W 122°25'0 0.0
2015-Feb-17 23:30N 47°38' W 122°25'0 0.0
2015-Feb-17 22:33N 47°38' W 122°25'0 0.0
2015-Feb-17 21:33N 47°38' W 122°25'0 0.1
2015-Feb-17 20:33N 47°38' W 122°25'0 0.0
2015-Feb-17 19:33N 47°38' W 122°25'0 0.0
2015-Feb-17 17:33N 47°38' W 122°25'0 0.0
2015-Feb-17 16:33N 47°38' W 122°25'0 0.0
2015-Feb-17 15:24N 47°38' W 122°25'0 0.0
2015-Feb-17 14:33N 47°38' W 122°25'0 0.0
2015-Feb-17 13:33N 47°38' W 122°25'0 0.0
2015-Feb-17 12:33N 47°38' W 122°25'0 0.1
2015-Feb-17 11:33N 47°38' W 122°25'7 7.0
2015-Feb-17 10:33N 47°45' W 122°27'1716.6
2015-Feb-17 09:33N 47°60' W 122°37'1716.4
2015-Feb-17 08:33N 48°11' W 122°55'1716.6
2015-Feb-17 07:33N 48°10' W 123°20'9 8.8
2015-Feb-17 06:33N 48°16' W 123°29'1111.0
2015-Feb-17 05:33N 48°23' W 123°17'1514.7
2015-Feb-17 04:34N 48°38' W 123°14'1414.3
2015-Feb-17 03:34N 48°49' W 123°01'1716.9
2015-Feb-17 02:33N 49°01' W 123°19'8 8.2
2015-Feb-17 01:33N 49°07' W 123°09'1010.1
2015-Feb-17 00:33N 49°11' W 122°55'1 0.6
2015-Feb-16 23:31N 49°11' W 122°55'0 0.0
2015-Feb-16 22:31N 49°11' W 122°55'0 0.0
2015-Feb-16 21:31N 49°11' W 122°55'0 0.0
2015-Feb-16 20:28N 49°11' W 122°55'0 0.0
2015-Feb-16 19:31N 49°11' W 122°55'0 0.0
2015-Feb-16 18:31N 49°11' W 122°55'0 0.0
2015-Feb-16 17:28N 49°11' W 122°55'0 0.0
2015-Feb-16 16:28N 49°11' W 122°55'0 0.0
2015-Feb-16 15:28N 49°11' W 122°55'0 0.0
2015-Feb-16 14:25N 49°11' W 122°55'0 0.0
2015-Feb-16 13:31N 49°11' W 122°55'0 0.0
2015-Feb-16 12:31N 49°11' W 122°55'0 0.0
2015-Feb-16 11:31N 49°11' W 122°55'0 0.0
2015-Feb-16 10:31N 49°11' W 122°55'0 0.0
2015-Feb-16 09:31N 49°11' W 122°55'0 0.0
2015-Feb-16 08:31N 49°11' W 122°55'0 0.0
2015-Feb-16 07:31N 49°11' W 122°55'0 0.0
2015-Feb-16 06:33N 49°11' W 122°55'0 0.5
2015-Feb-16 05:32N 49°11' W 122°55'0 0.0
2015-Feb-16 04:32N 49°11' W 122°55'0 0.0
2015-Feb-16 03:32N 49°11' W 122°55'0 0.0
2015-Feb-16 02:32N 49°11' W 122°55'0 0.0
2015-Feb-16 01:32N 49°11' W 122°55'  

Dump ship's entire track history